createdAt,value
2019-03-27T00:00:25.975Z,45.70
2019-03-27T00:02:56.847Z,45.70
2019-03-27T00:05:27.947Z,45.70
2019-03-27T00:07:58.836Z,45.50
2019-03-27T00:10:30.321Z,45.70
2019-03-27T00:13:01.686Z,45.50
2019-03-27T00:15:34.083Z,45.60
2019-03-27T00:18:04.991Z,45.80
2019-03-27T00:20:36.384Z,46.20
2019-03-27T00:23:07.533Z,46.10
2019-03-27T00:25:38.339Z,45.70
2019-03-27T00:28:09.193Z,45.80
2019-03-27T00:30:39.929Z,46.50
2019-03-27T00:33:11.114Z,46.10
2019-03-27T00:35:41.978Z,46.60
2019-03-27T00:38:12.854Z,46.40
2019-03-27T00:40:43.943Z,46.40
2019-03-27T00:43:14.824Z,46.30
2019-03-27T00:45:45.630Z,46.60
2019-03-27T00:48:16.405Z,46.70
2019-03-27T00:50:48.246Z,46.90
2019-03-27T00:53:18.167Z,47.60
2019-03-27T00:55:48.905Z,47.70
2019-03-27T00:58:20.082Z,47.40
2019-03-27T01:01:11.248Z,47.70
2019-03-27T01:03:42.101Z,48.20
2019-03-27T01:06:13.558Z,48.50
2019-03-27T01:08:44.787Z,48.50
2019-03-27T01:11:15.581Z,49.20
2019-03-27T01:13:46.462Z,49.00
2019-03-27T01:16:17.349Z,48.50
2019-03-27T01:18:48.416Z,48.80
2019-03-27T01:21:19.488Z,49.10
2019-03-27T01:23:50.655Z,49.40
2019-03-27T01:26:21.717Z,49.10
2019-03-27T01:28:52.602Z,49.10
2019-03-27T01:31:23.334Z,49.50
2019-03-27T01:33:54.180Z,49.10
2019-03-27T01:36:24.969Z,49.20
2019-03-27T01:38:55.926Z,49.20
2019-03-27T01:41:26.796Z,49.40
2019-03-27T01:43:57.595Z,49.40
2019-03-27T01:46:28.710Z,49.40
2019-03-27T01:48:59.559Z,49.20
2019-03-27T01:51:30.892Z,49.20
2019-03-27T01:54:02.022Z,49.40
2019-03-27T01:56:32.919Z,49.70
2019-03-27T01:59:04.471Z,49.80
2019-03-27T02:01:35.631Z,49.90
2019-03-27T02:04:06.718Z,50.00
2019-03-27T02:06:37.582Z,49.80
2019-03-27T02:09:08.867Z,50.10
2019-03-27T02:11:39.733Z,50.20
2019-03-27T02:14:10.914Z,50.10
2019-03-27T02:16:42.028Z,50.50
2019-03-27T02:19:13.164Z,50.40
2019-03-27T02:21:44.302Z,50.40
2019-03-27T02:24:15.476Z,50.20
2019-03-27T02:26:46.587Z,50.40
2019-03-27T02:29:17.845Z,50.20
2019-03-27T02:31:48.607Z,50.60
2019-03-27T02:34:19.409Z,50.80
2019-03-27T02:36:50.600Z,51.00
2019-03-27T02:39:21.896Z,51.20
2019-03-27T02:41:52.767Z,51.10
2019-03-27T02:44:23.613Z,51.30
2019-03-27T02:46:55.222Z,51.70
2019-03-27T02:49:26.079Z,51.90
2019-03-27T02:51:58.180Z,52.20
2019-03-27T02:54:28.968Z,52.40
2019-03-27T02:56:59.902Z,53.30
2019-03-27T02:59:30.734Z,52.80
2019-03-27T03:02:01.825Z,53.30
2019-03-27T03:04:32.716Z,53.20
2019-03-27T03:07:03.574Z,53.20
2019-03-27T03:09:34.788Z,53.30
2019-03-27T03:12:05.726Z,53.40
2019-03-27T03:14:37.090Z,53.50
2019-03-27T03:17:07.925Z,53.50
2019-03-27T03:19:38.883Z,53.60
2019-03-27T03:22:10.003Z,53.70
2019-03-27T03:24:41.565Z,53.80
2019-03-27T03:27:12.845Z,54.20
2019-03-27T03:29:43.684Z,54.00
2019-03-27T03:32:14.518Z,53.80
2019-03-27T03:34:45.401Z,54.20
2019-03-27T03:37:16.158Z,54.00
2019-03-27T03:39:47.805Z,53.90
2019-03-27T03:42:20.005Z,54.10
2019-03-27T03:44:50.968Z,54.10
2019-03-27T03:47:21.813Z,54.00
2019-03-27T03:49:52.577Z,54.10
2019-03-27T03:52:23.766Z,54.30
2019-03-27T03:54:54.922Z,54.10
2019-03-27T03:57:29.187Z,54.20
2019-03-27T04:00:03.358Z,54.30
2019-03-27T04:02:36.864Z,54.40
2019-03-27T04:05:08.453Z,54.60
2019-03-27T04:07:39.350Z,54.90
2019-03-27T04:10:10.244Z,54.90
2019-03-27T04:12:41.156Z,54.90
2019-03-27T04:15:12.504Z,55.40
2019-03-27T04:17:43.443Z,54.80
2019-03-27T04:20:14.872Z,55.10
2019-03-27T04:22:45.693Z,55.30
2019-03-27T04:25:16.877Z,55.30
2019-03-27T04:27:47.983Z,55.40
2019-03-27T04:30:19.267Z,55.60
2019-03-27T04:32:50.291Z,55.80
2019-03-27T04:35:21.431Z,55.80
2019-03-27T04:37:53.023Z,55.90
2019-03-27T04:40:23.841Z,55.80
2019-03-27T04:42:54.765Z,56.20
2019-03-27T04:45:25.204Z,56.40
2019-03-27T04:47:56.249Z,56.50
2019-03-27T04:50:28.486Z,56.30
2019-03-27T04:52:59.900Z,56.40
2019-03-27T04:55:31.312Z,56.30
2019-03-27T04:58:02.525Z,56.40
2019-03-27T05:00:34.097Z,56.40
2019-03-27T05:03:05.450Z,56.60
2019-03-27T05:05:36.670Z,56.60
2019-03-27T05:08:07.751Z,56.60
2019-03-27T05:10:39.217Z,56.70
2019-03-27T05:13:10.383Z,56.90
2019-03-27T05:15:41.246Z,56.90
2019-03-27T05:18:12.031Z,57.20
2019-03-27T05:20:42.762Z,57.00
2019-03-27T05:23:13.682Z,57.00
2019-03-27T05:25:44.803Z,56.90
2019-03-27T05:28:16.038Z,56.80
2019-03-27T05:30:47.840Z,57.00
2019-03-27T05:33:18.934Z,56.90
2019-03-27T05:35:49.801Z,57.00
2019-03-27T05:38:20.613Z,57.10
2019-03-27T05:40:51.571Z,56.70
2019-03-27T05:43:22.323Z,56.90
2019-03-27T05:45:53.396Z,57.00
2019-03-27T05:48:24.303Z,57.10
2019-03-27T05:50:55.100Z,57.00
2019-03-27T05:53:25.971Z,57.30
2019-03-27T05:55:56.778Z,57.50
2019-03-27T05:58:27.895Z,57.50
2019-03-27T06:00:58.739Z,57.30
2019-03-27T06:03:29.929Z,57.20
2019-03-27T06:06:00.982Z,57.30
2019-03-27T06:08:31.769Z,57.40
2019-03-27T06:11:02.886Z,57.30
2019-03-27T06:13:33.963Z,57.50
2019-03-27T06:16:06.273Z,57.30
2019-03-27T06:18:37.166Z,57.30
2019-03-27T06:21:08.658Z,57.10
2019-03-27T06:23:40.790Z,56.90
2019-03-27T06:26:11.603Z,57.00
2019-03-27T06:28:43.022Z,57.10
2019-03-27T06:31:14.170Z,57.00
2019-03-27T06:33:45.735Z,56.90
2019-03-27T06:36:16.848Z,56.90
2019-03-27T06:38:47.614Z,57.00
2019-03-27T06:41:21.727Z,56.80
2019-03-27T06:43:52.557Z,57.10
2019-03-27T06:46:23.465Z,57.30
2019-03-27T06:48:57.569Z,57.30
2019-03-27T06:51:39.435Z,57.30
2019-03-27T06:54:01.156Z,57.30
2019-03-27T06:56:31.974Z,57.30
2019-03-27T06:59:02.730Z,57.00
2019-03-27T07:01:34.339Z,57.10
2019-03-27T07:04:10.675Z,56.80
2019-03-27T07:06:39.166Z,56.90
2019-03-27T07:09:09.622Z,56.90
2019-03-27T07:11:40.967Z,57.00
2019-03-27T07:14:12.918Z,57.00
2019-03-27T07:16:45.148Z,57.00
2019-03-27T07:19:16.046Z,57.00
2019-03-27T07:21:47.119Z,57.20
2019-03-27T07:24:18.150Z,57.20
2019-03-27T07:26:48.973Z,57.30
2019-03-27T07:29:19.830Z,57.60
2019-03-27T07:31:51.044Z,57.70
2019-03-27T07:34:22.138Z,57.70
2019-03-27T07:36:56.137Z,57.30
2019-03-27T07:39:25.665Z,57.20
2019-03-27T07:41:57.696Z,57.60
2019-03-27T07:44:28.483Z,57.60
2019-03-27T07:47:01.674Z,57.40
2019-03-27T07:49:33.988Z,57.60
2019-03-27T07:52:05.055Z,57.30
2019-03-27T07:54:36.608Z,57.50
2019-03-27T07:57:08.385Z,57.50
2019-03-27T07:59:39.219Z,57.30
2019-03-27T08:02:10.058Z,57.00
2019-03-27T08:04:41.434Z,57.20
2019-03-27T08:07:25.950Z,57.00
2019-03-27T08:09:45.907Z,57.10
2019-03-27T08:12:17.070Z,57.30
2019-03-27T08:14:48.355Z,57.40
2019-03-27T08:17:19.184Z,57.50
2019-03-27T08:19:52.312Z,57.40
2019-03-27T08:22:23.079Z,57.10
2019-03-27T08:24:53.948Z,57.50
2019-03-27T08:27:25.239Z,57.50
2019-03-27T08:29:56.098Z,57.10
2019-03-27T08:32:26.964Z,57.40
2019-03-27T08:34:57.785Z,57.40
2019-03-27T08:37:29.364Z,57.20
2019-03-27T08:40:00.335Z,57.30
2019-03-27T08:42:31.273Z,57.60
2019-03-27T08:45:02.731Z,57.60
2019-03-27T08:47:33.875Z,57.50
2019-03-27T08:50:05.801Z,57.50
2019-03-27T08:52:36.593Z,57.50
2019-03-27T08:55:08.226Z,57.50
2019-03-27T08:57:39.392Z,57.40
2019-03-27T09:00:10.976Z,57.40
2019-03-27T09:02:41.839Z,57.20
2019-03-27T09:05:13.513Z,56.90
2019-03-27T09:07:44.480Z,56.70
2019-03-27T09:10:15.641Z,56.90
2019-03-27T09:12:47.201Z,56.80
2019-03-27T09:15:18.324Z,56.70
2019-03-27T09:17:49.518Z,56.00
2019-03-27T09:20:20.332Z,56.50
2019-03-27T09:22:51.823Z,57.00
2019-03-27T09:25:22.962Z,57.80
2019-03-27T09:27:53.827Z,56.90
2019-03-27T09:30:25.380Z,57.00
2019-03-27T09:32:56.313Z,56.80
2019-03-27T09:35:27.956Z,57.70
2019-03-27T09:37:58.825Z,57.90
2019-03-27T09:40:29.917Z,57.90
2019-03-27T09:43:00.804Z,57.00
2019-03-27T09:45:31.869Z,56.90
2019-03-27T09:48:02.967Z,56.80
2019-03-27T09:50:34.233Z,56.40
2019-03-27T09:53:05.504Z,56.90
2019-03-27T09:55:36.910Z,56.70
2019-03-27T09:58:08.856Z,56.80
2019-03-27T10:00:59.984Z,56.90
2019-03-27T10:03:31.791Z,56.70
2019-03-27T10:06:02.088Z,56.90
2019-03-27T10:08:32.801Z,56.90
2019-03-27T10:11:04.055Z,57.10
2019-03-27T10:13:34.883Z,57.10
2019-03-27T10:16:06.068Z,57.20
2019-03-27T10:18:37.985Z,56.90
2019-03-27T10:21:08.941Z,56.80
2019-03-27T10:23:39.743Z,56.60
2019-03-27T10:26:11.790Z,57.10
2019-03-27T10:28:43.027Z,56.30
2019-03-27T10:31:14.838Z,56.50
2019-03-27T10:33:47.388Z,56.10
2019-03-27T10:36:18.862Z,56.20
2019-03-27T10:38:50.004Z,56.40
2019-03-27T10:41:23.670Z,56.20
2019-03-27T10:43:54.505Z,56.90
2019-03-27T10:46:25.396Z,56.20
2019-03-27T10:48:56.231Z,56.10
2019-03-27T10:51:27.407Z,56.40
2019-03-27T10:53:58.283Z,56.00
2019-03-27T10:56:29.126Z,56.30
2019-03-27T10:59:00.419Z,56.50
2019-03-27T11:01:31.552Z,56.40
2019-03-27T11:04:05.445Z,56.40
2019-03-27T11:06:36.247Z,56.00
2019-03-27T11:09:09.318Z,56.40
2019-03-27T11:11:40.952Z,55.70
2019-03-27T11:14:11.778Z,56.30
2019-03-27T11:16:45.012Z,55.40
2019-03-27T11:19:15.850Z,55.40
2019-03-27T11:21:46.694Z,55.40
2019-03-27T11:24:21.776Z,55.30
2019-03-27T11:26:58.167Z,55.20
2019-03-27T11:29:29.037Z,55.30
2019-03-27T11:32:01.985Z,55.30
2019-03-27T11:34:35.382Z,54.90
2019-03-27T11:37:06.183Z,55.00
2019-03-27T11:39:37.104Z,55.40
2019-03-27T11:42:08.195Z,55.20
2019-03-27T11:44:40.152Z,55.00
2019-03-27T11:47:13.571Z,55.00
2019-03-27T11:49:44.516Z,55.00
2019-03-27T11:52:15.651Z,55.30
2019-03-27T11:54:47.595Z,55.20
2019-03-27T11:57:19.758Z,55.10
2019-03-27T11:59:54.268Z,55.40
2019-03-27T12:02:25.908Z,54.80
2019-03-27T12:04:58.950Z,54.60
2019-03-27T12:07:30.515Z,54.80
2019-03-27T12:10:01.625Z,54.50
2019-03-27T12:12:32.826Z,54.30
2019-03-27T12:15:03.702Z,54.80
2019-03-27T12:17:35.277Z,54.90
2019-03-27T12:20:06.984Z,54.80
2019-03-27T12:22:36.961Z,55.20
2019-03-27T12:25:07.782Z,55.10
2019-03-27T12:27:38.600Z,55.00
2019-03-27T12:30:10.556Z,54.90
2019-03-27T12:32:44.724Z,54.70
2019-03-27T12:35:15.728Z,54.80
2019-03-27T12:37:48.079Z,54.60
2019-03-27T12:40:19.121Z,54.40
2019-03-27T12:42:50.001Z,54.20
2019-03-27T12:45:21.110Z,53.90
2019-03-27T12:47:52.362Z,53.60
2019-03-27T12:50:24.002Z,53.70
2019-03-27T12:52:53.651Z,53.40
2019-03-27T12:55:29.538Z,53.90
2019-03-27T12:58:11.526Z,54.10
2019-03-27T13:00:41.255Z,54.30
2019-03-27T13:03:12.512Z,54.70
2019-03-27T13:05:44.154Z,54.80
2019-03-27T13:08:14.999Z,54.90
2019-03-27T13:10:46.578Z,54.90
2019-03-27T13:13:17.375Z,54.70
2019-03-27T13:15:48.888Z,55.30
2019-03-27T13:18:20.614Z,54.40
2019-03-27T13:20:51.406Z,53.90
2019-03-27T13:23:22.669Z,54.60
2019-03-27T13:25:53.537Z,54.60
2019-03-27T13:28:24.978Z,53.90
2019-03-27T13:30:56.084Z,53.80
2019-03-27T13:33:26.861Z,54.00
2019-03-27T13:35:58.002Z,54.00
2019-03-27T13:38:29.143Z,53.30
2019-03-27T13:41:00.433Z,53.10
2019-03-27T13:43:31.582Z,53.90
2019-03-27T13:46:02.450Z,54.60
2019-03-27T13:48:33.761Z,54.50
2019-03-27T13:51:05.035Z,54.30
2019-03-27T13:53:36.529Z,54.40
2019-03-27T13:56:07.652Z,53.30
2019-03-27T13:58:38.611Z,53.00
2019-03-27T14:01:12.827Z,53.30
2019-03-27T14:03:42.212Z,54.10
2019-03-27T14:06:14.208Z,52.90
2019-03-27T14:08:46.478Z,52.50
2019-03-27T14:11:17.708Z,52.50
2019-03-27T14:13:49.376Z,52.90
2019-03-27T14:17:27.514Z,53.60
2019-03-27T14:19:59.258Z,54.60
2019-03-27T14:22:31.884Z,54.10
2019-03-27T14:25:04.435Z,53.50
2019-03-27T14:27:36.853Z,53.30
2019-03-27T14:30:09.763Z,53.70
2019-03-27T14:32:43.639Z,52.00
2019-03-27T14:35:17.380Z,52.70
2019-03-27T14:37:49.548Z,53.30
2019-03-27T14:40:21.331Z,54.00
2019-03-27T14:42:52.109Z,54.00
2019-03-27T14:56:14.852Z,53.20
2019-03-27T14:58:46.911Z,53.50
2019-03-27T15:01:19.247Z,54.30
2019-03-27T15:03:51.750Z,54.20
2019-03-27T15:06:24.375Z,54.70
2019-03-27T15:08:56.627Z,54.90
2019-03-27T15:11:28.493Z,53.60
2019-03-27T15:13:59.474Z,54.50
2019-03-27T15:16:31.168Z,53.00
2019-03-27T15:19:03.028Z,53.60
2019-03-27T15:21:33.830Z,54.20
2019-03-27T15:24:06.075Z,52.60
2019-03-27T15:26:38.301Z,52.10
2019-03-27T15:29:10.196Z,53.10
2019-03-27T15:31:42.059Z,52.40
2019-03-27T15:34:12.562Z,51.90
2019-03-27T15:36:44.165Z,52.30
2019-03-27T15:39:15.317Z,53.50
2019-03-27T15:41:47.307Z,54.40
2019-03-27T15:44:19.134Z,54.10
2019-03-27T15:46:49.646Z,54.20
2019-03-27T15:49:21.824Z,54.40
2019-03-27T15:51:54.488Z,54.50
2019-03-27T15:54:26.370Z,54.40
2019-03-27T15:56:58.072Z,54.20
2019-03-27T15:59:29.786Z,54.00
2019-03-27T16:02:02.465Z,54.20
2019-03-27T16:04:34.321Z,54.20
2019-03-27T16:07:06.534Z,53.90
2019-03-27T16:09:38.477Z,53.80
2019-03-27T16:12:10.751Z,53.90
2019-03-27T16:14:43.484Z,53.90
2019-03-27T16:17:15.667Z,53.90
2019-03-27T16:19:48.172Z,52.90
2019-03-27T16:22:20.012Z,51.80
2019-03-27T16:24:50.469Z,51.70
2019-03-27T16:27:22.433Z,52.90
2019-03-27T16:29:54.264Z,53.90
2019-03-27T16:32:26.409Z,53.90
2019-03-27T16:34:58.648Z,54.40
2019-03-27T16:37:30.789Z,53.50
2019-03-27T16:40:03.402Z,53.90
2019-03-27T16:42:35.796Z,53.60
2019-03-27T16:45:06.811Z,53.40
2019-03-27T16:47:39.257Z,53.20
2019-03-27T16:50:12.224Z,53.30
2019-03-27T16:52:45.051Z,53.20
2019-03-27T16:55:17.514Z,53.30
2019-03-27T16:57:51.345Z,53.30
2019-03-27T17:00:24.387Z,53.20
2019-03-27T17:02:57.061Z,53.00
2019-03-27T17:05:30.187Z,53.10
2019-03-27T17:08:02.294Z,53.10
2019-03-27T17:10:34.178Z,53.10
2019-03-27T17:13:07.097Z,53.10
2019-03-27T17:15:38.849Z,53.10
2019-03-27T17:18:09.414Z,53.00
2019-03-27T17:20:42.554Z,52.90
2019-03-27T17:23:18.481Z,53.90
2019-03-27T17:25:48.006Z,53.10
2019-03-27T17:28:20.785Z,53.30
2019-03-27T17:30:52.733Z,53.30
2019-03-27T17:33:23.180Z,53.30
2019-03-27T17:35:54.826Z,53.50
2019-03-27T17:38:25.308Z,53.70
2019-03-27T17:40:58.434Z,53.40
2019-03-27T17:43:30.628Z,53.60
2019-03-27T17:46:03.708Z,53.30
2019-03-27T17:48:36.759Z,53.40
2019-03-27T17:51:09.343Z,53.30
2019-03-27T17:53:41.092Z,53.40
2019-03-27T17:56:13.215Z,53.00
2019-03-27T17:58:44.983Z,53.20
2019-03-27T18:01:15.823Z,53.80
2019-03-27T18:03:48.853Z,53.50
2019-03-27T18:06:21.450Z,53.00
2019-03-27T18:08:53.706Z,53.00
2019-03-27T18:11:25.610Z,52.80
2019-03-27T18:13:57.915Z,52.80
2019-03-27T18:16:31.196Z,53.50
2019-03-27T18:19:04.126Z,53.30
2019-03-27T18:21:36.855Z,52.90
2019-03-27T18:24:07.323Z,53.00
2019-03-27T18:26:40.130Z,53.50
2019-03-27T18:29:12.990Z,54.20
2019-03-27T18:31:45.376Z,53.10
2019-03-27T18:34:18.044Z,53.30
2019-03-27T18:36:50.809Z,53.10
2019-03-27T18:39:23.387Z,53.70
2019-03-27T18:41:56.267Z,53.70
2019-03-27T18:44:28.478Z,53.60
2019-03-27T18:47:02.178Z,53.20
2019-03-27T18:49:52.811Z,54.00
2019-03-27T18:52:24.661Z,54.00
2019-03-27T18:54:55.467Z,53.60
2019-03-27T18:57:27.403Z,54.50
2019-03-27T19:00:00.102Z,53.00
2019-03-27T19:02:32.353Z,52.60
2019-03-27T19:05:05.228Z,52.60
2019-03-27T19:07:37.427Z,54.30
2019-03-27T19:10:10.065Z,54.20
2019-03-27T19:12:42.394Z,54.20
2019-03-27T19:15:14.617Z,54.20
2019-03-27T19:17:47.159Z,53.90
2019-03-27T19:20:30.479Z,54.20
2019-03-27T19:23:02.391Z,54.50
2019-03-27T19:25:35.787Z,54.40
2019-03-27T19:28:08.482Z,54.20
2019-03-27T19:30:40.222Z,54.20
2019-03-27T19:33:10.734Z,54.10
2019-03-27T19:35:42.727Z,54.70
2019-03-27T19:38:24.775Z,54.30
2019-03-27T19:40:55.548Z,54.90
2019-03-27T19:43:27.639Z,54.70
2019-03-27T19:45:59.986Z,55.00
2019-03-27T19:48:31.875Z,54.20
2019-03-27T19:51:02.630Z,54.70
2019-03-27T19:53:34.500Z,54.60
2019-03-27T19:56:07.035Z,54.80
2019-03-27T19:58:40.969Z,55.20
2019-03-27T20:01:13.817Z,54.10
2019-03-27T20:03:45.626Z,52.90
2019-03-27T20:06:16.148Z,53.10
2019-03-27T20:08:47.907Z,53.40
2019-03-27T20:11:18.724Z,53.20
2019-03-27T20:13:51.164Z,53.00
2019-03-27T20:16:24.944Z,52.80
2019-03-27T20:18:56.985Z,52.80
2019-03-27T20:21:29.192Z,52.90
2019-03-27T20:24:01.738Z,53.40
2019-03-27T20:26:34.712Z,53.10
2019-03-27T20:29:06.939Z,53.00
2019-03-27T20:31:40.064Z,53.30
2019-03-27T20:34:12.278Z,53.00
2019-03-27T20:36:45.216Z,53.30
2019-03-27T20:39:17.322Z,52.90
2019-03-27T20:41:49.155Z,53.30
2019-03-27T20:44:19.609Z,53.10
2019-03-27T20:46:52.043Z,53.80
2019-03-27T20:49:24.550Z,54.00
2019-03-27T20:51:56.854Z,54.20
2019-03-27T20:54:28.742Z,54.30
2019-03-27T20:56:59.145Z,54.50
2019-03-27T20:59:30.831Z,53.50
2019-03-27T21:02:01.715Z,53.20
2019-03-27T21:04:33.704Z,53.10
2019-03-27T21:07:07.763Z,53.00
2019-03-27T21:09:39.927Z,53.20
2019-03-27T21:12:13.375Z,53.00
2019-03-27T21:14:45.999Z,53.20
2019-03-27T21:17:19.215Z,53.20
2019-03-27T21:19:51.057Z,53.90
2019-03-27T21:22:22.035Z,54.30
2019-03-27T21:25:07.648Z,54.70
2019-03-27T21:27:28.030Z,53.80
2019-03-27T21:30:00.654Z,53.40
2019-03-27T21:32:32.915Z,53.20
2019-03-27T21:35:06.032Z,53.30
2019-03-27T21:37:38.192Z,53.60
2019-03-27T21:40:11.007Z,53.40
2019-03-27T21:42:43.712Z,53.30
2019-03-27T21:45:16.279Z,53.00
2019-03-27T21:47:49.267Z,53.30
2019-03-27T21:50:21.641Z,53.20
2019-03-27T21:53:00.548Z,53.20
2019-03-27T21:55:28.310Z,53.10
2019-03-27T21:58:00.710Z,53.30
2019-03-27T22:00:40.123Z,53.40
2019-03-27T22:03:12.830Z,54.00
2019-03-27T22:05:45.176Z,53.70
2019-03-27T22:08:17.178Z,53.90
2019-03-27T22:10:49.433Z,53.90
2019-03-27T22:13:21.633Z,53.80
2019-03-27T22:15:53.530Z,53.70
2019-03-27T22:18:25.420Z,53.80
2019-03-27T22:20:56.156Z,53.60
2019-03-27T22:23:27.992Z,53.60
2019-03-27T22:26:01.249Z,53.70
2019-03-27T22:28:33.858Z,53.90
2019-03-27T22:31:05.721Z,54.00
2019-03-27T22:33:38.500Z,54.50
2019-03-27T22:36:11.367Z,54.20
2019-03-27T22:38:44.259Z,54.40
2019-03-27T22:41:16.483Z,54.10
2019-03-27T22:43:48.991Z,54.00
2019-03-27T22:46:21.697Z,54.10
2019-03-27T22:48:54.168Z,54.20
2019-03-27T22:51:26.125Z,54.00
2019-03-27T22:53:57.958Z,53.90
2019-03-27T22:56:28.762Z,54.30
2019-03-27T22:59:01.818Z,54.30
2019-03-27T23:01:42.599Z,54.10
2019-03-27T23:04:14.700Z,54.00
2019-03-27T23:06:45.117Z,54.00
2019-03-27T23:09:17.178Z,54.10
2019-03-27T23:11:49.400Z,54.20
2019-03-27T23:14:19.833Z,54.60
2019-03-27T23:16:52.280Z,54.70
2019-03-27T23:19:24.136Z,54.70
2019-03-27T23:21:56.308Z,54.90
2019-03-27T23:24:29.111Z,54.90
2019-03-27T23:27:01.461Z,54.70
2019-03-27T23:29:34.492Z,54.70
2019-03-27T23:32:06.610Z,55.60
2019-03-27T23:34:38.663Z,54.90
2019-03-27T23:37:09.513Z,54.90
2019-03-27T23:39:41.504Z,55.00
2019-03-27T23:42:16.149Z,55.00
2019-03-27T23:44:47.531Z,55.00
2019-03-27T23:47:21.217Z,55.10
2019-03-27T23:49:53.084Z,55.10
2019-03-27T23:52:24.391Z,55.20
2019-03-27T23:54:56.588Z,55.20
2019-03-27T23:57:28.886Z,55.30
